Terminal Aerodrome Forecast
Issued by NWS

Home | Current Version | Previous Version | Text Only | Print | Product List | Glossary On
Versions: 1 2 3 4 5 6 7 8 9 10 11 12 13 14 15
743
FTUS46 KMTR 280520
TAFOAK
TAF
KOAK 280520Z 2806/2912 29008KT P6SM SCT010
      TEMPO 2806/2808 BKN010
     FM280800 29006KT P6SM OVC010
     FM281800 26008KT P6SM FEW014
     FM282100 29014G20KT P6SM SKC
     FM290400 29010KT P6SM FEW012=

USA.gov is the U.S. government's official web portal to all federal, state and local government web resources and services.